sensor_id;sensor_type;location;lat;lon;timestamp;pressure;altitude;pressure_sealevel;temperature;humidity
60228;BME280;46091;46.512;6.626;2024-01-30T06:25:42;98411.63;;;8.11;70.57
60228;BME280;46091;46.512;6.626;2024-01-30T06:27:45;98408.06;;;8.41;69.79
60228;BME280;46091;46.512;6.626;2024-01-30T06:29:47;98405.28;;;8.62;69.40
60228;BME280;46091;46.512;6.626;2024-01-30T06:31:50;98419.22;;;8.82;69.09
60228;BME280;46091;46.512;6.626;2024-01-30T06:33:53;98417.97;;;8.95;68.56
60228;BME280;46091;46.512;6.626;2024-01-30T06:35:55;98414.31;;;9.06;68.16
60228;BME280;46091;46.512;6.626;2024-01-30T06:37:59;98415.09;;;9.16;68.18
60228;BME280;46091;46.512;6.626;2024-01-30T06:40:02;98409.25;;;9.22;67.95
60228;BME280;46091;46.512;6.626;2024-01-30T06:42:07;98411.28;;;9.28;67.69
60228;BME280;46091;46.512;6.626;2024-01-30T06:44:10;98419.63;;;9.33;67.67
60228;BME280;46091;46.512;6.626;2024-01-30T06:46:13;98412.25;;;9.37;67.28
60228;BME280;46091;46.512;6.626;2024-01-30T06:48:16;98420.72;;;9.41;67.53
60228;BME280;46091;46.512;6.626;2024-01-30T06:50:19;98421.41;;;9.43;67.32
60228;BME280;46091;46.512;6.626;2024-01-30T06:52:22;98425.41;;;9.47;66.95
60228;BME280;46091;46.512;6.626;2024-01-30T06:54:26;98421.63;;;9.49;67.05
60228;BME280;46091;46.512;6.626;2024-01-30T06:56:29;98426.75;;;9.51;66.54
60228;BME280;46091;46.512;6.626;2024-01-30T06:58:33;98435.22;;;9.54;66.48
60228;BME280;46091;46.512;6.626;2024-01-30T07:00:36;98430.78;;;9.55;66.64
60228;BME280;46091;46.512;6.626;2024-01-30T07:02:39;98435.91;;;9.56;66.37
60228;BME280;46091;46.512;6.626;2024-01-30T07:04:42;98434.09;;;9.57;66.36
60228;BME280;46091;46.512;6.626;2024-01-30T07:06:48;98435.63;;;9.59;66.34
60228;BME280;46091;46.512;6.626;2024-01-30T07:08:50;98439.91;;;9.60;66.03
60228;BME280;46091;46.512;6.626;2024-01-30T07:10:53;98443.22;;;9.62;66.23
60228;BME280;46091;46.512;6.626;2024-01-30T07:13:01;98438.81;;;9.63;66.09
60228;BME280;46091;46.512;6.626;2024-01-30T07:15:08;98440.47;;;9.64;65.86
60228;BME280;46091;46.512;6.626;2024-01-30T07:17:11;98445.59;;;9.66;65.85
60228;BME280;46091;46.512;6.626;2024-01-30T07:19:14;98449.75;;;9.68;65.69
60228;BME280;46091;46.512;6.626;2024-01-30T07:21:18;98449.44;;;9.71;65.82
60228;BME280;46091;46.512;6.626;2024-01-30T07:23:23;98451.25;;;9.71;65.65
60228;BME280;46091;46.512;6.626;2024-01-30T07:25:26;98445.81;;;9.72;65.60
60228;BME280;46091;46.512;6.626;2024-01-30T07:27:31;98451.94;;;9.73;65.40
60228;BME280;46091;46.512;6.626;2024-01-30T07:29:33;98461.66;;;9.72;65.22
60228;BME280;46091;46.512;6.626;2024-01-30T07:31:37;98462.50;;;9.73;65.29
60228;BME280;46091;46.512;6.626;2024-01-30T07:33:39;98459.75;;;9.74;65.34
60228;BME280;46091;46.512;6.626;2024-01-30T07:35:42;98461.41;;;9.75;65.17
60228;BME280;46091;46.512;6.626;2024-01-30T07:37:46;98461.25;;;9.77;65.16
60228;BME280;46091;46.512;6.626;2024-01-30T07:39:49;98463.75;;;9.78;65.18
60228;BME280;46091;46.512;6.626;2024-01-30T07:41:52;98465.09;;;9.82;65.13
60228;BME280;46091;46.512;6.626;2024-01-30T07:43:55;98464.81;;;9.85;64.96
60228;BME280;46091;46.512;6.626;2024-01-30T07:45:58;98469.13;;;9.86;64.83
60228;BME280;46091;46.512;6.626;2024-01-30T07:48:05;98476.75;;;9.89;65.02
60228;BME280;46091;46.512;6.626;2024-01-30T07:50:08;98483.69;;;9.90;64.79
60228;BME280;46091;46.512;6.626;2024-01-30T07:52:12;98480.91;;;9.92;64.59
60228;BME280;46091;46.512;6.626;2024-01-30T07:54:15;98474.63;;;9.93;64.73
60228;BME280;46091;46.512;6.626;2024-01-30T07:56:17;98474.19;;;9.98;64.47
60228;BME280;46091;46.512;6.626;2024-01-30T07:58:21;98478.34;;;10.00;64.35
60228;BME280;46091;46.512;6.626;2024-01-30T08:00:25;98489.59;;;10.02;64.58
60228;BME280;46091;46.512;6.626;2024-01-30T08:02:31;98486.81;;;10.04;64.50
60228;BME280;46091;46.512;6.626;2024-01-30T08:04:36;98490.28;;;10.04;64.48
60228;BME280;46091;46.512;6.626;2024-01-30T08:06:39;98484.84;;;10.06;64.30
60228;BME280;46091;46.512;6.626;2024-01-30T08:08:45;98489.84;;;10.09;64.25
60228;BME280;46091;46.512;6.626;2024-01-30T08:10:48;98493.31;;;10.09;63.99
60228;BME280;46091;46.512;6.626;2024-01-30T08:12:51;98487.88;;;10.11;64.36
60228;BME280;46091;46.512;6.626;2024-01-30T08:14:54;98492.19;;;10.12;64.03
60228;BME280;46091;46.512;6.626;2024-01-30T08:16:56;98491.22;;;10.13;63.99
60228;BME280;46091;46.512;6.626;2024-01-30T08:18:59;98491.88;;;10.15;64.19
60228;BME280;46091;46.512;6.626;2024-01-30T08:21:04;98490.06;;;10.15;63.97
60228;BME280;46091;46.512;6.626;2024-01-30T08:23:08;98496.03;;;10.17;63.85
60228;BME280;46091;46.512;6.626;2024-01-30T08:25:12;98495.88;;;10.19;64.02
60228;BME280;46091;46.512;6.626;2024-01-30T08:27:15;98500.22;;;10.20;64.07
60228;BME280;46091;46.512;6.626;2024-01-30T08:29:17;98497.56;;;10.20;63.84
60228;BME280;46091;46.512;6.626;2024-01-30T08:31:20;98492.28;;;10.20;63.67
60228;BME280;46091;46.512;6.626;2024-01-30T08:33:24;98491.31;;;10.21;63.71
60228;BME280;46091;46.512;6.626;2024-01-30T08:35:27;98490.47;;;10.20;63.69
60228;BME280;46091;46.512;6.626;2024-01-30T08:37:35;98489.38;;;10.23;63.34
60228;BME280;46091;46.512;6.626;2024-01-30T08:39:40;98494.66;;;10.23;63.47
60228;BME280;46091;46.512;6.626;2024-01-30T08:41:43;98489.38;;;10.23;63.21
60228;BME280;46091;46.512;6.626;2024-01-30T08:43:46;98493.81;;;10.23;63.43
60228;BME280;46091;46.512;6.626;2024-01-30T08:45:49;98493.81;;;10.23;63.39
60228;BME280;46091;46.512;6.626;2024-01-30T08:47:53;98493.81;;;10.23;63.38
60228;BME280;46091;46.512;6.626;2024-01-30T08:49:56;98497.44;;;10.22;62.96
60228;BME280;46091;46.512;6.626;2024-01-30T08:51:58;98496.47;;;10.23;63.05
60228;BME280;46091;46.512;6.626;2024-01-30T08:54:03;98499.94;;;10.23;63.33
60228;BME280;46091;46.512;6.626;2024-01-30T08:56:06;98498.97;;;10.24;63.07
60228;BME280;46091;46.512;6.626;2024-01-30T08:58:09;98490.03;;;10.25;63.20
60228;BME280;46091;46.512;6.626;2024-01-30T09:00:13;98502.13;;;10.28;63.22
60228;BME280;46091;46.512;6.626;2024-01-30T09:02:17;98500.31;;;10.28;63.28
60228;BME280;46091;46.512;6.626;2024-01-30T09:04:21;98501.84;;;10.31;62.98
60228;BME280;46091;46.512;6.626;2024-01-30T09:06:27;98502.69;;;10.31;62.97
60228;BME280;46091;46.512;6.626;2024-01-30T09:08:30;98509.78;;;10.31;62.73
60228;BME280;46091;46.512;6.626;2024-01-30T09:10:35;98504.59;;;10.29;62.81
60228;BME280;46091;46.512;6.626;2024-01-30T09:12:38;98501.13;;;10.29;63.06
60228;BME280;46091;46.512;6.626;2024-01-30T09:14:40;98506.28;;;10.30;62.76
60228;BME280;46091;46.512;6.626;2024-01-30T09:16:43;98500.97;;;10.30;62.84
60228;BME280;46091;46.512;6.626;2024-01-30T09:18:47;98502.69;;;10.31;62.50
60228;BME280;46091;46.512;6.626;2024-01-30T09:20:50;98495.56;;;10.32;62.53
60228;BME280;46091;46.512;6.626;2024-01-30T09:22:53;98494.75;;;10.31;62.65
60228;BME280;46091;46.512;6.626;2024-01-30T09:24:56;98494.03;;;10.29;62.46
60228;BME280;46091;46.512;6.626;2024-01-30T09:27:00;98500.16;;;10.30;62.47
60228;BME280;46091;46.512;6.626;2024-01-30T09:29:04;98499.47;;;10.28;62.27
60228;BME280;46091;46.512;6.626;2024-01-30T09:31:09;98501.84;;;10.31;62.36
60228;BME280;46091;46.512;6.626;2024-01-30T09:33:13;98513.09;;;10.33;62.58
60228;BME280;46091;46.512;6.626;2024-01-30T09:35:16;98515.59;;;10.34;62.20
60228;BME280;46091;46.512;6.626;2024-01-30T09:37:19;98510.16;;;10.36;62.18
60228;BME280;46091;46.512;6.626;2024-01-30T09:39:24;98518.75;;;10.38;62.21
60228;BME280;46091;46.512;6.626;2024-01-30T09:41:27;98511.66;;;10.38;62.07
60228;BME280;46091;46.512;6.626;2024-01-30T09:43:33;98510.66;;;10.39;62.25
60228;BME280;46091;46.512;6.626;2024-01-30T09:45:37;98511.50;;;10.40;62.18
60228;BME280;46091;46.512;6.626;2024-01-30T09:47:43;98513.16;;;10.41;62.03
60228;BME280;46091;46.512;6.626;2024-01-30T09:49:47;98517.34;;;10.43;62.22
60228;BME280;46091;46.512;6.626;2024-01-30T09:51:51;98513.72;;;10.44;62.31
60228;BME280;46091;46.512;6.626;2024-01-30T09:53:54;98516.19;;;10.46;62.14
60228;BME280;46091;46.512;6.626;2024-01-30T09:55:58;98520.50;;;10.47;62.19
60228;BME280;46091;46.512;6.626;2024-01-30T09:58:01;98517.53;;;10.50;62.09
60228;BME280;46091;46.512;6.626;2024-01-30T10:00:07;98514.75;;;10.52;61.77
60228;BME280;46091;46.512;6.626;2024-01-30T10:02:10;98519.06;;;10.53;61.68
60228;BME280;46091;46.512;6.626;2024-01-30T10:04:14;98511.13;;;10.53;61.94
60228;BME280;46091;46.512;6.626;2024-01-30T10:06:18;98519.75;;;10.55;61.72
60228;BME280;46091;46.512;6.626;2024-01-30T10:08:22;98514.47;;;10.55;61.87
60228;BME280;46091;46.512;6.626;2024-01-30T10:10:26;98526.72;;;10.56;61.83
60228;BME280;46091;46.512;6.626;2024-01-30T10:12:30;98521.41;;;10.56;61.75
60228;BME280;46091;46.512;6.626;2024-01-30T10:14:33;98516.13;;;10.56;61.59
60228;BME280;46091;46.512;6.626;2024-01-30T10:16:37;98525.88;;;10.55;61.62
60228;BME280;46091;46.512;6.626;2024-01-30T10:18:41;98511.81;;;10.55;61.53
60228;BME280;46091;46.512;6.626;2024-01-30T10:20:45;98523.38;;;10.54;61.66
60228;BME280;46091;46.512;6.626;2024-01-30T10:22:49;98513.75;;;10.53;61.79
60228;BME280;46091;46.512;6.626;2024-01-30T10:24:52;98525.06;;;10.55;61.74
60228;BME280;46091;46.512;6.626;2024-01-30T10:26:54;98519.75;;;10.55;61.65
60228;BME280;46091;46.512;6.626;2024-01-30T10:28:57;98512.66;;;10.55;61.71
60228;BME280;46091;46.512;6.626;2024-01-30T10:31:00;98507.22;;;10.57;61.83
60228;BME280;46091;46.512;6.626;2024-01-30T10:33:09;98505.41;;;10.57;61.42
60228;BME280;46091;46.512;6.626;2024-01-30T10:35:12;98503.75;;;10.56;61.69
60228;BME280;46091;46.512;6.626;2024-01-30T10:37:18;98504.41;;;10.58;61.44
60228;BME280;46091;46.512;6.626;2024-01-30T10:39:22;98511.34;;;10.59;61.46
60228;BME280;46091;46.512;6.626;2024-01-30T10:41:27;98508.56;;;10.61;61.40
60228;BME280;46091;46.512;6.626;2024-01-30T10:43:31;98504.94;;;10.62;61.59
60228;BME280;46091;46.512;6.626;2024-01-30T10:45:38;98502.28;;;10.62;61.62
60228;BME280;46091;46.512;6.626;2024-01-30T10:47:45;98507.41;;;10.63;61.46
60228;BME280;46091;46.512;6.626;2024-01-30T10:49:54;98507.28;;;10.65;61.58
60228;BME280;46091;46.512;6.626;2024-01-30T10:51:56;98503.66;;;10.66;61.41
60228;BME280;46091;46.512;6.626;2024-01-30T10:54:01;98506.97;;;10.68;61.57
60228;BME280;46091;46.512;6.626;2024-01-30T10:56:06;98504.03;;;10.71;61.27
60228;BME280;46091;46.512;6.626;2024-01-30T10:58:10;98491.47;;;10.73;61.67
60228;BME280;46091;46.512;6.626;2024-01-30T11:00:15;98490.50;;;10.74;61.42
60228;BME280;46091;46.512;6.626;2024-01-30T11:02:19;98498.13;;;10.77;61.46
60228;BME280;46091;46.512;6.626;2024-01-30T11:04:22;98488.22;;;10.79;61.51
60228;BME280;46091;46.512;6.626;2024-01-30T11:06:28;98489.88;;;10.80;61.11
60228;BME280;46091;46.512;6.626;2024-01-30T11:08:32;98487.25;;;10.80;61.44
60228;BME280;46091;46.512;6.626;2024-01-30T11:10:44;98491.53;;;10.81;61.54
60228;BME280;46091;46.512;6.626;2024-01-30T11:12:47;98479.16;;;10.82;61.48
60228;BME280;46091;46.512;6.626;2024-01-30T11:15:02;98481.47;;;10.85;61.27
60228;BME280;46091;46.512;6.626;2024-01-30T11:17:04;98482.16;;;10.87;61.38
60228;BME280;46091;46.512;6.626;2024-01-30T11:19:10;98481.03;;;10.89;61.21
60228;BME280;46091;46.512;6.626;2024-01-30T11:21:14;98478.22;;;10.91;61.56
60228;BME280;46091;46.512;6.626;2024-01-30T11:23:22;98478.06;;;10.92;61.28
60228;BME280;46091;46.512;6.626;2024-01-30T11:25:24;98479.41;;;10.96;61.34
60228;BME280;46091;46.512;6.626;2024-01-30T11:27:29;98481.78;;;10.99;61.15
60228;BME280;46091;46.512;6.626;2024-01-30T11:29:35;98477.31;;;11.00;61.08
60228;BME280;46091;46.512;6.626;2024-01-30T11:31:38;98478.97;;;11.01;61.07
60228;BME280;46091;46.512;6.626;2024-01-30T11:33:41;98479.66;;;11.03;61.29
60228;BME280;46091;46.512;6.626;2024-01-30T11:35:44;98484.94;;;11.03;61.08
60228;BME280;46091;46.512;6.626;2024-01-30T11:37:49;98483.13;;;11.03;61.23
60228;BME280;46091;46.512;6.626;2024-01-30T11:39:53;98484.78;;;11.04;61.34
60228;BME280;46091;46.512;6.626;2024-01-30T11:41:57;98476.00;;;11.04;61.11
60228;BME280;46091;46.512;6.626;2024-01-30T11:44:03;98475.84;;;11.05;61.08
60228;BME280;46091;46.512;6.626;2024-01-30T11:46:07;98483.63;;;11.07;61.41
60228;BME280;46091;46.512;6.626;2024-01-30T11:48:12;98473.88;;;11.07;61.07
60228;BME280;46091;46.512;6.626;2024-01-30T11:50:16;98480.00;;;11.08;61.08
60228;BME280;46091;46.512;6.626;2024-01-30T11:52:19;98476.53;;;11.07;60.94
60228;BME280;46091;46.512;6.626;2024-01-30T11:54:22;98479.84;;;11.09;61.42
60228;BME280;46091;46.512;6.626;2024-01-30T11:56:28;98469.13;;;11.11;60.79
60228;BME280;46091;46.512;6.626;2024-01-30T11:58:31;98464.66;;;11.12;61.15
60228;BME280;46091;46.512;6.626;2024-01-30T12:00:35;98467.31;;;11.12;60.95
60228;BME280;46091;46.512;6.626;2024-01-30T12:02:38;98465.31;;;11.14;60.91
60228;BME280;46091;46.512;6.626;2024-01-30T12:04:42;98464.50;;;11.13;60.77
60228;BME280;46091;46.512;6.626;2024-01-30T12:06:50;98453.75;;;11.15;60.89
60228;BME280;46091;46.512;6.626;2024-01-30T12:08:57;98453.44;;;11.18;61.18
60228;BME280;46091;46.512;6.626;2024-01-30T12:11:01;98450.63;;;11.19;60.98
60228;BME280;46091;46.512;6.626;2024-01-30T12:13:08;98453.81;;;11.23;60.83
60228;BME280;46091;46.512;6.626;2024-01-30T12:15:12;98448.50;;;11.23;60.87
60228;BME280;46091;46.512;6.626;2024-01-30T12:17:23;98447.53;;;11.24;60.81
60228;BME280;46091;46.512;6.626;2024-01-30T12:19:26;98441.41;;;11.23;60.71
60228;BME280;46091;46.512;6.626;2024-01-30T12:21:30;98443.50;;;11.20;60.54
60228;BME280;46091;46.512;6.626;2024-01-30T12:23:33;98437.53;;;11.18;60.58
60228;BME280;46091;46.512;6.626;2024-01-30T12:25:37;98436.88;;;11.16;60.49
60228;BME280;46091;46.512;6.626;2024-01-30T12:27:42;98436.53;;;11.11;60.75
60228;BME280;46091;46.512;6.626;2024-01-30T12:29:55;98434.84;;;11.09;60.98
60228;BME280;46091;46.512;6.626;2024-01-30T12:31:57;98423.44;;;11.09;60.99
60228;BME280;46091;46.512;6.626;2024-01-30T12:34:00;98433.88;;;11.11;60.62
60228;BME280;46091;46.512;6.626;2024-01-30T12:36:04;98429.25;;;11.13;60.71
60228;BME280;46091;46.512;6.626;2024-01-30T12:38:08;98422.31;;;11.12;60.62
60228;BME280;46091;46.512;6.626;2024-01-30T12:40:11;98414.53;;;11.10;60.54
60228;BME280;46091;46.512;6.626;2024-01-30T12:42:16;98423.59;;;11.07;60.74
60228;BME280;46091;46.512;6.626;2024-01-30T12:44:19;98423.28;;;11.11;61.07
60228;BME280;46091;46.512;6.626;2024-01-30T12:46:27;98419.19;;;11.16;60.72
60228;BME280;46091;46.512;6.626;2024-01-30T12:48:31;98414.38;;;11.20;60.73
60228;BME280;46091;46.512;6.626;2024-01-30T12:50:34;98418.56;;;11.22;60.98
60228;BME280;46091;46.512;6.626;2024-01-30T12:52:38;98414.75;;;11.25;60.61
60228;BME280;46091;46.512;6.626;2024-01-30T12:54:40;98404.84;;;11.27;60.79
60228;BME280;46091;46.512;6.626;2024-01-30T12:56:43;98414.13;;;11.31;60.55
60228;BME280;46091;46.512;6.626;2024-01-30T12:58:47;98410.34;;;11.33;60.54
60228;BME280;46091;46.512;6.626;2024-01-30T13:00:54;98413.81;;;11.34;60.43
60228;BME280;46091;46.512;6.626;2024-01-30T13:02:58;98410.84;;;11.37;60.67
60228;BME280;46091;46.512;6.626;2024-01-30T13:05:02;98403.56;;;11.39;60.46
60228;BME280;46091;46.512;6.626;2024-01-30T13:07:06;98407.72;;;11.42;60.48
60228;BME280;46091;46.512;6.626;2024-01-30T13:09:09;98404.91;;;11.43;60.52
60228;BME280;46091;46.512;6.626;2024-01-30T13:11:12;98400.31;;;11.45;60.47
60228;BME280;46091;46.512;6.626;2024-01-30T13:13:22;98404.59;;;11.46;60.48
60228;BME280;46091;46.512;6.626;2024-01-30T13:15:26;98400.31;;;11.45;60.25
60228;BME280;46091;46.512;6.626;2024-01-30T13:17:29;98404.44;;;11.48;60.11
60228;BME280;46091;46.512;6.626;2024-01-30T13:19:32;98399.97;;;11.48;60.40
60228;BME280;46091;46.512;6.626;2024-01-30T13:21:36;98396.34;;;11.49;59.96
60228;BME280;46091;46.512;6.626;2024-01-30T13:23:38;98394.34;;;11.51;59.91
60228;BME280;46091;46.512;6.626;2024-01-30T13:25:41;98396.00;;;11.52;59.87
60228;BME280;46091;46.512;6.626;2024-01-30T13:27:43;98395.00;;;11.53;59.84
60228;BME280;46091;46.512;6.626;2024-01-30T13:29:46;98388.06;;;11.52;59.81
60228;BME280;46091;46.512;6.626;2024-01-30T13:31:48;98396.66;;;11.54;59.82
60228;BME280;46091;46.512;6.626;2024-01-30T13:33:51;98400.31;;;11.53;60.10
60228;BME280;46091;46.512;6.626;2024-01-30T13:35:56;98400.31;;;11.53;60.06
60228;BME280;46091;46.512;6.626;2024-01-30T13:38:00;98393.34;;;11.52;59.99
60228;BME280;46091;46.512;6.626;2024-01-30T13:40:06;98402.28;;;11.51;60.08
60228;BME280;46091;46.512;6.626;2024-01-30T13:42:12;98397.00;;;11.51;60.08
60228;BME280;46091;46.512;6.626;2024-01-30T13:44:15;98399.47;;;11.53;59.87
60228;BME280;46091;46.512;6.626;2024-01-30T13:46:18;98401.97;;;11.54;60.20
60228;BME280;46091;46.512;6.626;2024-01-30T13:48:21;98398.34;;;11.55;60.15
60228;BME280;46091;46.512;6.626;2024-01-30T13:50:24;98401.00;;;11.55;59.99
60228;BME280;46091;46.512;6.626;2024-01-30T13:52:29;98398.34;;;11.55;59.72
60228;BME280;46091;46.512;6.626;2024-01-30T13:54:39;98396.66;;;11.54;59.87
60228;BME280;46091;46.512;6.626;2024-01-30T13:56:43;98398.03;;;11.58;59.83
60228;BME280;46091;46.512;6.626;2024-01-30T13:58:46;98389.41;;;11.56;59.79
60228;BME280;46091;46.512;6.626;2024-01-30T14:00:49;98399.69;;;11.59;59.73
60228;BME280;46091;46.512;6.626;2024-01-30T14:02:52;98393.56;;;11.59;59.88
60228;BME280;46091;46.512;6.626;2024-01-30T14:04:57;98399.34;;;11.62;59.59
60228;BME280;46091;46.512;6.626;2024-01-30T14:07:00;98402.00;;;11.62;59.72
60228;BME280;46091;46.512;6.626;2024-01-30T14:09:07;98401.00;;;11.63;59.57
60228;BME280;46091;46.512;6.626;2024-01-30T14:11:11;98399.03;;;11.65;59.89
60228;BME280;46091;46.512;6.626;2024-01-30T14:13:14;98390.13;;;11.66;59.46
60228;BME280;46091;46.512;6.626;2024-01-30T14:15:18;98393.72;;;11.65;59.89
60228;BME280;46091;46.512;6.626;2024-01-30T14:17:30;98397.22;;;11.66;59.82
60228;BME280;46091;46.512;6.626;2024-01-30T14:19:34;98403.19;;;11.68;59.84
60228;BME280;46091;46.512;6.626;2024-01-30T14:21:38;98398.72;;;11.69;59.46
60228;BME280;46091;46.512;6.626;2024-01-30T14:23:42;98400.38;;;11.70;59.86
60228;BME280;46091;46.512;6.626;2024-01-30T14:25:47;98402.88;;;11.71;59.38
60228;BME280;46091;46.512;6.626;2024-01-30T14:27:50;98394.91;;;11.71;59.31
60228;BME280;46091;46.512;6.626;2024-01-30T14:29:55;98392.28;;;11.71;59.32
60228;BME280;46091;46.512;6.626;2024-01-30T14:31:58;98393.09;;;11.72;59.14
60228;BME280;46091;46.512;6.626;2024-01-30T14:34:01;98387.31;;;11.68;58.82
60228;BME280;46091;46.512;6.626;2024-01-30T14:36:04;98390.59;;;11.62;58.46
60228;BME280;46091;46.512;6.626;2024-01-30T14:38:09;98393.56;;;11.59;58.89
60228;BME280;46091;46.512;6.626;2024-01-30T14:40:12;98400.69;;;11.58;59.00
60228;BME280;46091;46.512;6.626;2024-01-30T14:42:17;98398.84;;;11.59;59.18
60228;BME280;46091;46.512;6.626;2024-01-30T14:44:20;98397.03;;;11.59;59.12
60228;BME280;46091;46.512;6.626;2024-01-30T14:46:22;98392.72;;;11.58;59.08
60228;BME280;46091;46.512;6.626;2024-01-30T14:48:26;98394.56;;;11.58;58.81
60228;BME280;46091;46.512;6.626;2024-01-30T14:50:29;98392.06;;;11.56;58.70
60228;BME280;46091;46.512;6.626;2024-01-30T14:52:33;98393.06;;;11.55;58.65
60228;BME280;46091;46.512;6.626;2024-01-30T14:54:36;98393.88;;;11.56;58.62
60228;BME280;46091;46.512;6.626;2024-01-30T14:56:39;98386.06;;;11.54;58.83
60228;BME280;46091;46.512;6.626;2024-01-30T14:58:55;98387.75;;;11.55;58.90
60228;BME280;46091;46.512;6.626;2024-01-30T15:00:58;98389.41;;;11.56;58.94
60228;BME280;46091;46.512;6.626;2024-01-30T15:03:01;98385.94;;;11.56;58.62
60228;BME280;46091;46.512;6.626;2024-01-30T15:05:04;98392.72;;;11.58;58.74
60228;BME280;46091;46.512;6.626;2024-01-30T15:07:08;98384.94;;;11.57;58.72
60228;BME280;46091;46.512;6.626;2024-01-30T15:09:10;98394.38;;;11.59;58.68
60228;BME280;46091;46.512;6.626;2024-01-30T15:11:17;98391.56;;;11.61;58.75
60228;BME280;46091;46.512;6.626;2024-01-30T15:13:20;98395.06;;;11.61;58.49
60228;BME280;46091;46.512;6.626;2024-01-30T15:15:24;98387.94;;;11.62;58.46
60228;BME280;46091;46.512;6.626;2024-01-30T15:17:30;98400.19;;;11.63;58.36
60228;BME280;46091;46.512;6.626;2024-01-30T15:19:32;98396.72;;;11.62;58.59
60228;BME280;46091;46.512;6.626;2024-01-30T15:21:36;98405.66;;;11.61;58.30
60228;BME280;46091;46.512;6.626;2024-01-30T15:23:39;98404.81;;;11.61;58.38
60228;BME280;46091;46.512;6.626;2024-01-30T15:25:42;98407.47;;;11.61;58.56
60228;BME280;46091;46.512;6.626;2024-01-30T15:27:45;98405.66;;;11.61;58.14
60228;BME280;46091;46.512;6.626;2024-01-30T15:29:47;98400.50;;;11.60;58.00
60228;BME280;46091;46.512;6.626;2024-01-30T15:31:51;98404.97;;;11.59;58.12
60228;BME280;46091;46.512;6.626;2024-01-30T15:33:54;98405.16;;;11.58;57.97
60228;BME280;46091;46.512;6.626;2024-01-30T15:36:00;98398.34;;;11.55;57.91
60228;BME280;46091;46.512;6.626;2024-01-30T15:38:03;98402.78;;;11.55;57.69
60228;BME280;46091;46.512;6.626;2024-01-30T15:40:11;98400.16;;;11.55;57.75
60228;BME280;46091;46.512;6.626;2024-01-30T15:42:14;98402.97;;;11.53;57.76
60228;BME280;46091;46.512;6.626;2024-01-30T15:44:18;98386.06;;;11.54;57.57
60228;BME280;46091;46.512;6.626;2024-01-30T15:46:21;98386.06;;;11.54;57.37
60228;BME280;46091;46.512;6.626;2024-01-30T15:48:26;98391.38;;;11.54;57.49
60228;BME280;46091;46.512;6.626;2024-01-30T15:50:29;98388.06;;;11.52;57.49
60228;BME280;46091;46.512;6.626;2024-01-30T15:52:33;98396.00;;;11.52;57.28
60228;BME280;46091;46.512;6.626;2024-01-30T15:54:36;98390.72;;;11.52;57.68
60228;BME280;46091;46.512;6.626;2024-01-30T15:56:40;98390.53;;;11.54;57.51
60228;BME280;46091;46.512;6.626;2024-01-30T15:58:43;98386.06;;;11.54;57.36
60228;BME280;46091;46.512;6.626;2024-01-30T16:00:51;98391.25;;;11.56;57.59
60228;BME280;46091;46.512;6.626;2024-01-30T16:02:54;98395.84;;;11.54;57.46
60228;BME280;46091;46.512;6.626;2024-01-30T16:05:01;98395.00;;;11.53;57.42
60228;BME280;46091;46.512;6.626;2024-01-30T16:07:04;98401.97;;;11.54;57.16
60228;BME280;46091;46.512;6.626;2024-01-30T16:09:07;98399.47;;;11.53;57.47
60228;BME280;46091;46.512;6.626;2024-01-30T16:11:10;98393.34;;;11.52;56.98
60228;BME280;46091;46.512;6.626;2024-01-30T16:13:14;98393.53;;;11.51;57.14
60228;BME280;46091;46.512;6.626;2024-01-30T16:15:17;98397.00;;;11.51;57.01
60228;BME280;46091;46.512;6.626;2024-01-30T16:17:21;98401.31;;;11.52;57.29
60228;BME280;46091;46.512;6.626;2024-01-30T16:19:24;98399.47;;;11.53;56.99
60228;BME280;46091;46.512;6.626;2024-01-30T16:21:29;98404.63;;;11.54;57.21
60228;BME280;46091;46.512;6.626;2024-01-30T16:23:32;98406.31;;;11.55;57.24
60228;BME280;46091;46.512;6.626;2024-01-30T16:25:35;98404.78;;;11.53;56.91
60228;BME280;46091;46.512;6.626;2024-01-30T16:27:38;98411.72;;;11.54;57.09
60228;BME280;46091;46.512;6.626;2024-01-30T16:29:41;98410.91;;;11.53;57.06
60228;BME280;46091;46.512;6.626;2024-01-30T16:31:44;98417.19;;;11.52;57.08
60228;BME280;46091;46.512;6.626;2024-01-30T16:33:47;98418.03;;;11.53;57.10
60228;BME280;46091;46.512;6.626;2024-01-30T16:35:51;98425.13;;;11.52;56.89
60228;BME280;46091;46.512;6.626;2024-01-30T16:37:56;98431.44;;;11.51;56.96
60228;BME280;46091;46.512;6.626;2024-01-30T16:39:59;98428.13;;;11.49;57.02
60228;BME280;46091;46.512;6.626;2024-01-30T16:42:03;98433.41;;;11.49;56.81
60228;BME280;46091;46.512;6.626;2024-01-30T16:44:08;98436.22;;;11.48;57.12
60228;BME280;46091;46.512;6.626;2024-01-30T16:46:11;98441.69;;;11.46;57.10
60228;BME280;46091;46.512;6.626;2024-01-30T16:48:13;98446.97;;;11.46;56.68
60228;BME280;46091;46.512;6.626;2024-01-30T16:50:20;98435.72;;;11.44;56.78
60228;BME280;46091;46.512;6.626;2024-01-30T16:52:23;98441.16;;;11.43;56.81
60228;BME280;46091;46.512;6.626;2024-01-30T16:54:29;98442.28;;;11.40;56.92
60228;BME280;46091;46.512;6.626;2024-01-30T16:56:31;98445.09;;;11.38;56.85
60228;BME280;46091;46.512;6.626;2024-01-30T16:58:34;98447.91;;;11.37;57.06
60228;BME280;46091;46.512;6.626;2024-01-30T17:00:37;98447.25;;;11.35;56.80
60228;BME280;46091;46.512;6.626;2024-01-30T17:02:40;98454.38;;;11.34;57.09
60228;BME280;46091;46.512;6.626;2024-01-30T17:04:43;98452.72;;;11.33;57.04
60228;BME280;46091;46.512;6.626;2024-01-30T17:06:47;98450.19;;;11.32;56.87
60228;BME280;46091;46.512;6.626;2024-01-30T17:08:50;98449.38;;;11.31;57.10
60228;BME280;46091;46.512;6.626;2024-01-30T17:10:54;98453.00;;;11.30;56.98
60228;BME280;46091;46.512;6.626;2024-01-30T17:12:57;98447.69;;;11.30;56.98
60228;BME280;46091;46.512;6.626;2024-01-30T17:15:01;98446.22;;;11.28;57.05
60228;BME280;46091;46.512;6.626;2024-01-30T17:17:05;98450.00;;;11.25;57.03
60228;BME280;46091;46.512;6.626;2024-01-30T17:19:14;98445.53;;;11.26;56.76
60228;BME280;46091;46.512;6.626;2024-01-30T17:21:18;98449.19;;;11.25;56.87
60228;BME280;46091;46.512;6.626;2024-01-30T17:23:21;98454.47;;;11.25;57.07